Observation data for Turkey on 10/14/2019      Previous  Date       Current Mesonet Observations  Soil Data  Daily Summary Page  Observations in Plain Language
KTUR 140500Z 27002KT 17/05 A2992 RMK A01 T01720052  RH  046%=      5-min Rain = 0
KTUR 140505Z 27002KT 17/05 A2992 RMK A01 T01660052  RH  048%=      5-min Rain = 0
KTUR 140510Z 30005KT 17/05 A2992 RMK A01 T01670052  RH  047%=      5-min Rain = 0
KTUR 140515Z 31007KT 16/05 A2992 RMK A01 T01570054  RH  051%=      5-min Rain = 0
KTUR 140520Z 31007KT 15/05 A2991 RMK A01 T01480054  RH  054%=      5-min Rain = 0
KTUR 140525Z 30008KT 15/05 A2991 RMK A01 T01470054  RH  054%=      5-min Rain = 0
KTUR 140530Z 31008KT 15/05 A2991 RMK A01 T01470054  RH  054%=      5-min Rain = 0
KTUR 140535Z 31009KT 15/06 A2991 RMK A01 T01450055  RH  055%=      5-min Rain = 0
KTUR 140540Z 31009KT 14/06 A2991 RMK A01 T01410056  RH  057%=      5-min Rain = 0
KTUR 140545Z 31008KT 14/06 A2991 RMK A01 T01390057  RH  058%=      5-min Rain = 0
KTUR 140550Z 31008KT 14/06 A2991 RMK A01 T01350057  RH  060%=      5-min Rain = 0
KTUR 140555Z 32007KT 14/06 A2991 RMK A01 T01350056  RH  060%=      5-min Rain = 0
KTUR 140600Z 12003G9KT 13/06 A2992 RMK A01 T01280057  RH  063%=      5-min Rain = 0
KTUR 140605Z 14003KT 13/06 A2992 RMK A01 T01250057  RH  064%=      5-min Rain = 0
KTUR 140610Z 22005KT 12/06 A2993 RMK A01 T01170058  RH  068%=      5-min Rain = 0
KTUR 140615Z 17008KT 11/06 A2993 RMK A01 T01110058  RH  071%=      5-min Rain = 0
KTUR 140620Z 20008KT 11/06 A2993 RMK A01 T01110059  RH  071%=      5-min Rain = 0
KTUR 140625Z 20008KT 11/06 A2993 RMK A01 T01060058  RH  073%=      5-min Rain = 0
KTUR 140630Z 22009KT 10/06 A2993 RMK A01 T01030059  RH  075%=      5-min Rain = 0
KTUR 140635Z 23010KT 11/06 A2993 RMK A01 T01060059  RH  073%=      5-min Rain = 0
KTUR 140640Z 24007KT 12/06 A2993 RMK A01 T01170058  RH  068%=      5-min Rain = 0
KTUR 140645Z 27009KT 12/06 A2993 RMK A01 T01230058  RH  065%=      5-min Rain = 0
KTUR 140650Z 28009KT 13/06 A2993 RMK A01 T01280057  RH  063%=      5-min Rain = 0
KTUR 140655Z 29007KT 14/06 A2993 RMK A01 T01360056  RH  059%=      5-min Rain = 0
KTUR 140700Z 28007KT 15/05 A2993 RMK A01 T01450054  RH  055%=      5-min Rain = 0
KTUR 140705Z 27007KT 15/05 A2993 RMK A01 T01470053  RH  054%=      5-min Rain = 0
KTUR 140710Z 28009KT 15/05 A2992 RMK A01 T01490053  RH  053%=      5-min Rain = 0
KTUR 140715Z 28009KT 16/05 A2992 RMK A01 T01550052  RH  051%=      5-min Rain = 0
KTUR 140720Z 27008KT 15/05 A2993 RMK A01 T01530053  RH  052%=      5-min Rain = 0
KTUR 140725Z 28008KT 14/05 A2993 RMK A01 T01420054  RH  056%=      5-min Rain = 0
KTUR 140730Z 28008KT 15/05 A2992 RMK A01 T01450053  RH  055%=      5-min Rain = 0
KTUR 140735Z 27008KT 15/05 A2992 RMK A01 T01540053  RH  051%=      5-min Rain = 0
KTUR 140740Z 26008KT 16/05 A2992 RMK A01 T01590052  RH  050%=      5-min Rain = 0
KTUR 140745Z 26009KT 16/05 A2992 RMK A01 T01610049  RH  048%=      5-min Rain = 0
KTUR 140750Z 26009KT 16/05 A2992 RMK A01 T01630046  RH  047%=      5-min Rain = 0
KTUR 140755Z 26008KT 16/04 A2992 RMK A01 T01630044  RH  046%=      5-min Rain = 0
KTUR 140800Z 26008KT 16/04 A2992 RMK A01 T01600044  RH  046%=      5-min Rain = 0
KTUR 140805Z 27008KT 16/04 A2992 RMK A01 T01560043  RH  047%=      5-min Rain = 0
KTUR 140810Z 26007KT 16/04 A2992 RMK A01 T01560043  RH  047%=      5-min Rain = 0
KTUR 140815Z 26007KT 15/04 A2992 RMK A01 T01540042  RH  048%=      5-min Rain = 0
KTUR 140820Z 25007KT 15/04 A2992 RMK A01 T01530040  RH  047%=      5-min Rain = 0
KTUR 140825Z 24008KT 16/04 A2992 RMK A01 T01550039  RH  046%=      5-min Rain = 0
KTUR 140830Z 24008KT 15/04 A2992 RMK A01 T01500041  RH  049%=      5-min Rain = 0
KTUR 140835Z 24007KT 15/04 A2992 RMK A01 T01480040  RH  049%=      5-min Rain = 0
KTUR 140840Z 24008KT 15/04 A2992 RMK A01 T01480039  RH  049%=      5-min Rain = 0
KTUR 140845Z 24008KT 15/04 A2992 RMK A01 T01460040  RH  050%=      5-min Rain = 0
KTUR 140850Z 24008KT 14/04 A2991 RMK A01 T01410041  RH  052%=      5-min Rain = 0
KTUR 140855Z 24008KT 14/04 A2991 RMK A01 T01380041  RH  052%=      5-min Rain = 0
KTUR 140900Z 25008KT 15/03 A2991 RMK A01 T01470034  RH  047%=      5-min Rain = 0
KTUR 140905Z 25008KT 15/03 A2991 RMK A01 T01510032  RH  045%=      5-min Rain = 0
KTUR 140910Z 26007KT 15/03 A2991 RMK A01 T01490031  RH  046%=      5-min Rain = 0
KTUR 140915Z 29004KT 14/04 A2991 RMK A01 T01420036  RH  050%=      5-min Rain = 0
KTUR 140920Z 30004KT 14/03 A2991 RMK A01 T01390034  RH  050%=      5-min Rain = 0
KTUR 140925Z 31004KT 14/03 A2991 RMK A01 T01410033  RH  049%=      5-min Rain = 0
KTUR 140930Z 30003KT 15/03 A2991 RMK A01 T01450030  RH  046%=      5-min Rain = 0
KTUR 140935Z 30003KT 15/03 A2991 RMK A01 T01530025  RH  042%=      5-min Rain = 0
KTUR 140940Z 29004KT 16/02 A2991 RMK A01 T01610020  RH  039%=      5-min Rain = 0
KTUR 140945Z 30003KT 16/02 A2991 RMK A01 T01640019  RH  038%=      5-min Rain = 0
KTUR 140950Z 30004KT 16/02 A2991 RMK A01 T01630021  RH  039%=      5-min Rain = 0
KTUR 140955Z 32004KT 16/02 A2992 RMK A01 T01610021  RH  040%=      5-min Rain = 0
KTUR 141000Z 32004KT 15/02 A2992 RMK A01 T01540024  RH  042%=      5-min Rain = 0
KTUR 141005Z 32004KT 15/03 A2992 RMK A01 T01460027  RH  045%=      5-min Rain = 0
KTUR 141010Z 33005KT 14/03 A2992 RMK A01 T01420027  RH  046%=      5-min Rain = 0
KTUR 141015Z 34006KT 14/03 A2992 RMK A01 T01420031  RH  048%=      5-min Rain = 0
KTUR 141020Z 34005KT 14/04 A2992 RMK A01 T01410037  RH  050%=      5-min Rain = 0
KTUR 141025Z 35004KT 14/04 A2992 RMK A01 T01410037  RH  050%=      5-min Rain = 0
KTUR 141030Z 33004KT 14/04 A2992 RMK A01 T01410039  RH  051%=      5-min Rain = 0
KTUR 141035Z 33004KT 14/04 A2991 RMK A01 T01410041  RH  052%=      5-min Rain = 0
KTUR 141040Z 33004KT 14/05 A2992 RMK A01 T01400045  RH  053%=      5-min Rain = 0
KTUR 141045Z 34004KT 14/05 A2992 RMK A01 T01410046  RH  053%=      5-min Rain = 0
KTUR 141050Z 35004KT 14/05 A2992 RMK A01 T01380046  RH  055%=      5-min Rain = 0
KTUR 141055Z 35004KT 14/05 A2992 RMK A01 T01350047  RH  056%=      5-min Rain = 0
KTUR 141100Z 35005KT 14/05 A2992 RMK A01 T01350047  RH  056%=      5-min Rain = 0
KTUR 141105Z 34004KT 14/05 A2992 RMK A01 T01360048  RH  056%=      5-min Rain = 0
KTUR 141110Z 35004KT 14/05 A2992 RMK A01 T01380048  RH  055%=      5-min Rain = 0
KTUR 141115Z 35004KT 14/05 A2992 RMK A01 T01380048  RH  055%=      5-min Rain = 0
KTUR 141120Z 35003KT 14/05 A2992 RMK A01 T01390048  RH  055%=      5-min Rain = 0
KTUR 141125Z 35003KT 14/05 A2992 RMK A01 T01410048  RH  054%=      5-min Rain = 0
KTUR 141130Z 34004KT 14/05 A2992 RMK A01 T01440048  RH  053%=      5-min Rain = 0
KTUR 141135Z 35004KT 14/05 A2993 RMK A01 T01430049  RH  054%=      5-min Rain = 0
KTUR 141140Z 34004KT 14/05 A2993 RMK A01 T01420049  RH  054%=      5-min Rain = 0
KTUR 141145Z 34003KT 14/05 A2993 RMK A01 T01390050  RH  056%=      5-min Rain = 0
KTUR 141150Z 33003KT 14/05 A2993 RMK A01 T01400049  RH  055%=      5-min Rain = 0
KTUR 141155Z 32002KT 14/05 A2993 RMK A01 T01420051  RH  055%=      5-min Rain = 0
KTUR 141200Z 28002KT 13/06 A2994 RMK A01 T01310058  RH  062%=      5-min Rain = 0
KTUR 141205Z 25001KT 12/06 A2994 RMK A01 T01220059  RH  066%=      5-min Rain = 0
KTUR 141210Z 24002KT 12/06 A2994 RMK A01 T01170059  RH  068%=      5-min Rain = 0
KTUR 141215Z 28002KT 11/06 A2994 RMK A01 T01140057  RH  069%=      5-min Rain = 0
KTUR 141220Z 30002KT 12/05 A2994 RMK A01 T01180053  RH  066%=      5-min Rain = 0
KTUR 141225Z 30004KT 12/05 A2994 RMK A01 T01200052  RH  064%=      5-min Rain = 0
KTUR 141230Z 30004KT 12/05 A2994 RMK A01 T01240051  RH  062%=      5-min Rain = 0
KTUR 141235Z 31004KT 13/05 A2994 RMK A01 T01330049  RH  058%=      5-min Rain = 0
KTUR 141240Z 32004KT 14/05 A2994 RMK A01 T01380049  RH  056%=      5-min Rain = 0
KTUR 141245Z 31004KT 14/05 A2994 RMK A01 T01380049  RH  056%=      5-min Rain = 0
KTUR 141250Z 31004KT 14/05 A2995 RMK A01 T01370049  RH  056%=      5-min Rain = 0
KTUR 141255Z 30004KT 14/05 A2994 RMK A01 T01360049  RH  057%=      5-min Rain = 0
KTUR 141300Z 30004KT 14/05 A2994 RMK A01 T01360049  RH  056%=      5-min Rain = 0
KTUR 141305Z 30003KT 14/05 A2994 RMK A01 T01400048  RH  055%=      5-min Rain = 0
KTUR 141310Z 30004KT 14/05 A2994 RMK A01 T01390049  RH  055%=      5-min Rain = 0
KTUR 141315Z 29004KT 14/05 A2994 RMK A01 T01380051  RH  057%=      5-min Rain = 0
KTUR 141320Z 30003KT 14/05 A2994 RMK A01 T01390049  RH  055%=      5-min Rain = 0
KTUR 141325Z 30003KT 14/05 A2994 RMK A01 T01420048  RH  054%=      5-min Rain = 0
KTUR 141330Z 28002KT 14/06 A2994 RMK A01 T01390058  RH  059%=      5-min Rain = 0
KTUR 141335Z 28001KT 14/06 A2994 RMK A01 T01350061  RH  062%=      5-min Rain = 0
KTUR 141340Z 00000KT 13/07 A2994 RMK A01 T01320067  RH  065%=      5-min Rain = 0
KTUR 141345Z 21001KT 13/07 A2994 RMK A01 T01330073  RH  068%=      5-min Rain = 0
KTUR 141350Z 21002KT 14/07 A2994 RMK A01 T01400067  RH  063%=      5-min Rain = 0
KTUR 141355Z 19003KT 15/06 A2995 RMK A01 T01470064  RH  058%=      5-min Rain = 0
KTUR 141400Z 20003KT 15/06 A2995 RMK A01 T01540062  RH  055%=      5-min Rain = 0
KTUR 141405Z 20004KT 16/06 A2995 RMK A01 T01590062  RH  053%=      5-min Rain = 0
KTUR 141410Z 20005KT 16/06 A2995 RMK A01 T01620058  RH  051%=      5-min Rain = 0
KTUR 141415Z 21004KT 17/06 A2995 RMK A01 T01670061  RH  050%=      5-min Rain = 0
KTUR 141420Z 19004KT 17/06 A2995 RMK A01 T01660058  RH  050%=      5-min Rain = 0
KTUR 141425Z 17004KT 17/06 A2995 RMK A01 T01650063  RH  052%=      5-min Rain = 0
KTUR 141430Z 17004KT 17/07 A2996 RMK A01 T01650065  RH  052%=      5-min Rain = 0
KTUR 141435Z 18004KT 17/07 A2996 RMK A01 T01680065  RH  051%=      5-min Rain = 0
KTUR 141440Z 18004KT 17/07 A2996 RMK A01 T01700066  RH  051%=      5-min Rain = 0
KTUR 141445Z 17004KT 17/07 A2996 RMK A01 T01730068  RH  051%=      5-min Rain = 0
KTUR 141450Z 17005KT 18/06 A2996 RMK A01 T01790063  RH  047%=      5-min Rain = 0
KTUR 141455Z 18005KT 18/06 A2996 RMK A01 T01790061  RH  046%=      5-min Rain = 0
KTUR 141500Z 18005KT 18/06 A2996 RMK A01 T01800063  RH  047%=      5-min Rain = 0
KTUR 141505Z 17005KT 18/06 A2997 RMK A01 T01810061  RH  046%=      5-min Rain = 0
KTUR 141510Z 17005KT 18/06 A2997 RMK A01 T01830061  RH  045%=      5-min Rain = 0
KTUR 141515Z 18005KT 19/06 A2996 RMK A01 T01860062  RH  045%=      5-min Rain = 0
KTUR 141520Z 18004KT 19/06 A2996 RMK A01 T01910061  RH  043%=      5-min Rain = 0
KTUR 141525Z 20004KT 19/06 A2996 RMK A01 T01910059  RH  042%=      5-min Rain = 0
KTUR 141530Z 21005KT 19/06 A2997 RMK A01 T01940063  RH  043%=      5-min Rain = 0
KTUR 141535Z 22005KT 20/06 A2997 RMK A01 T01980064  RH  042%=      5-min Rain = 0
KTUR 141540Z 22005KT 20/06 A2996 RMK A01 T02000064  RH  042%=      5-min Rain = 0
KTUR 141545Z 23004KT 20/07 A2996 RMK A01 T02030066  RH  041%=      5-min Rain = 0
KTUR 141550Z 24004KT 21/07 A2996 RMK A01 T02050067  RH  041%=      5-min Rain = 0
KTUR 141555Z 24004KT 21/07 A2996 RMK A01 T02080069  RH  041%=      5-min Rain = 0
KTUR 141600Z 24003KT 21/07 A2996 RMK A01 T02100070  RH  041%=      5-min Rain = 0
KTUR 141605Z 24002KT 21/07 A2995 RMK A01 T02120073  RH  041%=      5-min Rain = 0
KTUR 141610Z 22002KT 21/07 A2995 RMK A01 T02130072  RH  041%=      5-min Rain = 0
KTUR 141615Z 23002KT 21/07 A2996 RMK A01 T02130071  RH  040%=      5-min Rain = 0
KTUR 141620Z 24002KT 22/07 A2996 RMK A01 T02150071  RH  040%=      5-min Rain = 0
KTUR 141625Z 23002KT 22/07 A2996 RMK A01 T02160074  RH  040%=      5-min Rain = 0
KTUR 141630Z 22001KT 22/08 A2995 RMK A01 T02220080  RH  041%=      5-min Rain = 0
KTUR 141635Z 18002KT 23/08 A2995 RMK A01 T02300078  RH  038%=      5-min Rain = 0
KTUR 141640Z 22002KT 23/07 A2995 RMK A01 T02310069  RH  036%=      5-min Rain = 0
KTUR 141645Z 23003KT 23/07 A2995 RMK A01 T02330070  RH  035%=      5-min Rain = 0
KTUR 141650Z 20003KT 24/07 A2995 RMK A01 T02380068  RH  034%=      5-min Rain = 0
KTUR 141655Z 17003KT 24/07 A2995 RMK A01 T02420074  RH  035%=      5-min Rain = 0
KTUR 141700Z 15004KT 24/07 A2995 RMK A01 T02430072  RH  034%=      5-min Rain = 0
KTUR 141705Z 14005KT 24/07 A2995 RMK A01 T02430074  RH  034%=      5-min Rain = 0
KTUR 141710Z 17004KT 24/07 A2994 RMK A01 T02430071  RH  034%=      5-min Rain = 0
KTUR 141715Z 17004KT 25/08 A2994 RMK A01 T02480077  RH  034%=      5-min Rain = 0
KTUR 141720Z 15006KT 25/08 A2994 RMK A01 T02500077  RH  034%=      5-min Rain = 0
KTUR 141725Z 15007KT 25/08 A2994 RMK A01 T02510077  RH  034%=      5-min Rain = 0
KTUR 141730Z 16006KT 25/08 A2994 RMK A01 T02510080  RH  034%=      5-min Rain = 0
KTUR 141735Z 15007KT 25/08 A2993 RMK A01 T02520080  RH  034%=      5-min Rain = 0
KTUR 141740Z 15007KT 25/08 A2993 RMK A01 T02520079  RH  034%=      5-min Rain = 0
KTUR 141745Z 16008KT 25/08 A2993 RMK A01 T02520078  RH  033%=      5-min Rain = 0
KTUR 141750Z 16006KT 25/08 A2993 RMK A01 T02520077  RH  033%=      5-min Rain = 0
KTUR 141755Z 17006KT 26/07 A2993 RMK A01 T02550074  RH  032%=      5-min Rain = 0
KTUR 141800Z 15007KT 26/08 A2993 RMK A01 T02560075  RH  032%=      5-min Rain = 0
KTUR 141805Z 15006KT 26/08 A2993 RMK A01 T02560077  RH  032%=      5-min Rain = 0
KTUR 141810Z 14006KT 26/08 A2993 RMK A01 T02580077  RH  032%=      5-min Rain = 0
KTUR 141815Z 14005KT 26/08 A2992 RMK A01 T02630075  RH  031%=      5-min Rain = 0
KTUR 141820Z 11006KT 27/08 A2992 RMK A01 T02680075  RH  030%=      5-min Rain = 0
KTUR 141825Z 14004KT 27/08 A2991 RMK A01 T02690077  RH  030%=      5-min Rain = 0
KTUR 141830Z 13004KT 27/07 A2991 RMK A01 T02740071  RH  028%=      5-min Rain = 0
KTUR 141835Z 15004KT 28/07 A2991 RMK A01 T02770071  RH  027%=      5-min Rain = 0
KTUR 141840Z 14005KT 28/07 A2991 RMK A01 T02790073  RH  028%=      5-min Rain = 0
KTUR 141845Z 17004KT 28/07 A299 RMK A01 T02810074  RH  028%=      5-min Rain = 0
KTUR 141850Z 17003KT 28/07 A299 RMK A01 T02840072  RH  026%=      5-min Rain = 0
KTUR 141855Z 12005KT 29/08 A299 RMK A01 T02850079  RH  028%=      5-min Rain = 0
KTUR 141900Z 13005KT 28/08 A299 RMK A01 T02840075  RH  027%=      5-min Rain = 0
KTUR 141905Z 14006KT 29/07 A2989 RMK A01 T02850074  RH  027%=      5-min Rain = 0
KTUR 141910Z 17003G8KT 28/07 A2989 RMK A01 T02840070  RH  026%=      5-min Rain = 0
KTUR 141915Z 13005KT 29/07 A2989 RMK A01 T02880074  RH  026%=      5-min Rain = 0
KTUR 141920Z 16004KT 29/07 A2988 RMK A01 T02910068  RH  025%=      5-min Rain = 0
KTUR 141925Z 14004KT 29/07 A2988 RMK A01 T02920068  RH  025%=      5-min Rain = 0
KTUR 141930Z 16006KT 29/07 A2988 RMK A01 T02940070  RH  025%=      5-min Rain = 0
KTUR 141935Z 19006KT 30/07 A2988 RMK A01 T02960065  RH  024%=      5-min Rain = 0
KTUR 141940Z 14004G10KT 30/07 A2987 RMK A01 T02980070  RH  024%=      5-min Rain = 0
KTUR 141945Z 17005KT 30/07 A2987 RMK A01 T02990068  RH  024%=      5-min Rain = 0
KTUR 141950Z 16005KT 30/07 A2987 RMK A01 T03000066  RH  023%=      5-min Rain = 0
KTUR 141955Z 15008KT 30/07 A2986 RMK A01 T03030065  RH  023%=      5-min Rain = 0
KTUR 142000Z 16007KT 30/06 A2986 RMK A01 T03010058  RH  022%=      5-min Rain = 0
KTUR 142005Z 17010KT 31/06 A2985 RMK A01 T03060062  RH  022%=      5-min Rain = 0
KTUR 142010Z 17009KT 30/06 A2986 RMK A01 T03010057  RH  022%=      5-min Rain = 0
KTUR 142015Z 20010KT 30/05 A2985 RMK A01 T03010049  RH  020%=      5-min Rain = 0
KTUR 142020Z 18011KT 30/05 A2985 RMK A01 T03040052  RH  021%=      5-min Rain = 0
KTUR 142025Z 18012KT 31/05 A2985 RMK A01 T03050051  RH  020%=      5-min Rain = 0
KTUR 142030Z 17009G14KT 30/05 A2985 RMK A01 T03040049  RH  020%=      5-min Rain = 0
KTUR 142035Z 16010KT 31/05 A2985 RMK A01 T03050048  RH  020%=      5-min Rain = 0
KTUR 142040Z 17010KT 30/05 A2985 RMK A01 T03040048  RH  020%=      5-min Rain = 0
KTUR 142045Z 19010G15KT 31/05 A2985 RMK A01 T03060049  RH  020%=      5-min Rain = 0
KTUR 142050Z 19008KT 31/05 A2985 RMK A01 T03070050  RH  020%=      5-min Rain = 0
KTUR 142055Z 16008KT 31/06 A2985 RMK A01 T03070056  RH  021%=      5-min Rain = 0
KTUR 142100Z 15009KT 31/05 A2985 RMK A01 T03060054  RH  021%=      5-min Rain = 0
KTUR 142105Z 18013KT 31/05 A2984 RMK A01 T03070052  RH  020%=      5-min Rain = 0
KTUR 142110Z 19011KT 31/05 A2984 RMK A01 T03060049  RH  020%=      5-min Rain = 0
KTUR 142115Z 18008G15KT 31/05 A2984 RMK A01 T03070054  RH  021%=      5-min Rain = 0
KTUR 142120Z 18007KT 31/06 A2984 RMK A01 T03090060  RH  021%=      5-min Rain = 0
KTUR 142125Z 19012KT 31/06 A2984 RMK A01 T03090058  RH  021%=      5-min Rain = 0
KTUR 142130Z 18009KT 31/06 A2984 RMK A01 T03060062  RH  022%=      5-min Rain = 0
KTUR 142135Z 16008KT 31/08 A2984 RMK A01 T03060075  RH  024%=      5-min Rain = 0
KTUR 142140Z 17010KT 31/08 A2984 RMK A01 T03050079  RH  025%=      5-min Rain = 0
KTUR 142145Z 17011KT 30/08 A2984 RMK A01 T03030081  RH  025%=      5-min Rain = 0
KTUR 142150Z 16012KT 30/08 A2984 RMK A01 T03020083  RH  026%=      5-min Rain = 0
KTUR 142155Z 17012G17KT 30/08 A2984 RMK A01 T03020081  RH  026%=      5-min Rain = 0
KTUR 142200Z 18013KT 30/08 A2984 RMK A01 T03010077  RH  025%=      5-min Rain = 0
KTUR 142205Z 18013KT 30/08 A2984 RMK A01 T03000075  RH  025%=      5-min Rain = 0
KTUR 142210Z 17012G17KT 30/08 A2984 RMK A01 T03000076  RH  025%=      5-min Rain = 0
KTUR 142215Z 17015G20KT 30/07 A2984 RMK A01 T02980074  RH  025%=      5-min Rain = 0
KTUR 142220Z 18014KT 30/08 A2984 RMK A01 T02980076  RH  025%=      5-min Rain = 0
KTUR 142225Z 18014KT 30/07 A2984 RMK A01 T02970074  RH  025%=      5-min Rain = 0
KTUR 142230Z 17011G16KT 30/08 A2984 RMK A01 T02960077  RH  026%=      5-min Rain = 0
KTUR 142235Z 17012G18KT 30/08 A2984 RMK A01 T02950076  RH  026%=      5-min Rain = 0
KTUR 142240Z 17013KT 29/07 A2984 RMK A01 T02940074  RH  025%=      5-min Rain = 0
KTUR 142245Z 18012G18KT 29/08 A2984 RMK A01 T02940075  RH  026%=      5-min Rain = 0
KTUR 142250Z 17012KT 29/08 A2984 RMK A01 T02930075  RH  026%=      5-min Rain = 0
KTUR 142255Z 17011G16KT 29/08 A2984 RMK A01 T02920077  RH  026%=      5-min Rain = 0
KTUR 142300Z 18012G17KT 29/07 A2984 RMK A01 T02910073  RH  026%=      5-min Rain = 0
KTUR 142305Z 18011KT 29/07 A2984 RMK A01 T02900072  RH  026%=      5-min Rain = 0
KTUR 142310Z 17011KT 29/07 A2984 RMK A01 T02890074  RH  026%=      5-min Rain = 0
KTUR 142315Z 17011G16KT 29/08 A2984 RMK A01 T02880077  RH  027%=      5-min Rain = 0
KTUR 142320Z 18009KT 29/08 A2984 RMK A01 T02860080  RH  028%=      5-min Rain = 0
KTUR 142325Z 18008KT 28/09 A2984 RMK A01 T02830085  RH  029%=      5-min Rain = 0
KTUR 142330Z 17009KT 28/09 A2984 RMK A01 T02810085  RH  030%=      5-min Rain = 0
KTUR 142335Z 17008KT 28/09 A2984 RMK A01 T02780087  RH  031%=      5-min Rain = 0
KTUR 142340Z 17008KT 28/09 A2984 RMK A01 T02760087  RH  031%=      5-min Rain = 0
KTUR 142345Z 17009KT 27/09 A2984 RMK A01 T02720086  RH  031%=      5-min Rain = 0
KTUR 142350Z 17008KT 27/09 A2984 RMK A01 T02690086  RH  032%=      5-min Rain = 0
KTUR 142355Z 17008KT 26/09 A2984 RMK A01 T02640088  RH  033%=      5-min Rain = 0
KTUR 150000Z 17008KT 26/09 A2984 RMK A01 T02580088  RH  035%=      5-min Rain = 0
KTUR 150005Z 17008KT 25/09 A2984 RMK A01 T02540089  RH  036%=      5-min Rain = 0
KTUR 150010Z 17008KT 25/09 A2984 RMK A01 T02480090  RH  037%=      5-min Rain = 0
KTUR 150015Z 17008KT 24/09 A2984 RMK A01 T02430091  RH  039%=      5-min Rain = 0
KTUR 150020Z 17008KT 24/09 A2985 RMK A01 T02380092  RH  040%=      5-min Rain = 0
KTUR 150025Z 17008KT 24/09 A2985 RMK A01 T02350092  RH  041%=      5-min Rain = 0
KTUR 150030Z 17008KT 23/09 A2985 RMK A01 T02300093  RH  042%=      5-min Rain = 0
KTUR 150035Z 17008KT 23/09 A2985 RMK A01 T02280093  RH  043%=      5-min Rain = 0
KTUR 150040Z 16008KT 23/09 A2985 RMK A01 T02260093  RH  043%=      5-min Rain = 0
KTUR 150045Z 17008KT 23/09 A2985 RMK A01 T02260093  RH  043%=      5-min Rain = 0
KTUR 150050Z 17008KT 23/09 A2985 RMK A01 T02260092  RH  043%=      5-min Rain = 0
KTUR 150055Z 17008KT 22/09 A2985 RMK A01 T02240093  RH  044%=      5-min Rain = 0
KTUR 150100Z 17008KT 22/09 A2985 RMK A01 T02220093  RH  045%=      5-min Rain = 0
KTUR 150105Z 17007KT 22/09 A2985 RMK A01 T02180094  RH  046%=      5-min Rain = 0
KTUR 150110Z 17007KT 22/10 A2986 RMK A01 T02150095  RH  047%=      5-min Rain = 0
KTUR 150115Z 17007KT 21/09 A2986 RMK A01 T02120094  RH  048%=      5-min Rain = 0
KTUR 150120Z 16008KT 21/10 A2986 RMK A01 T02100095  RH  048%=      5-min Rain = 0
KTUR 150125Z 16007KT 21/10 A2986 RMK A01 T02070095  RH  049%=      5-min Rain = 0
KTUR 150130Z 16007KT 21/10 A2986 RMK A01 T02080095  RH  049%=      5-min Rain = 0
KTUR 150135Z 16007KT 21/10 A2986 RMK A01 T02060095  RH  050%=      5-min Rain = 0
KTUR 150140Z 16007KT 20/10 A2986 RMK A01 T02040096  RH  050%=      5-min Rain = 0
KTUR 150145Z 16007KT 20/10 A2987 RMK A01 T02020096  RH  051%=      5-min Rain = 0
KTUR 150150Z 16007KT 20/10 A2987 RMK A01 T01970096  RH  053%=      5-min Rain = 0
KTUR 150155Z 16008KT 20/10 A2987 RMK A01 T01970096  RH  053%=      5-min Rain = 0
KTUR 150200Z 17008KT 20/10 A2987 RMK A01 T01990096  RH  052%=      5-min Rain = 0
KTUR 150205Z 17008KT 20/10 A2987 RMK A01 T01990096  RH  052%=      5-min Rain = 0
KTUR 150210Z 18007KT 19/10 A2987 RMK A01 T01930097  RH  055%=      5-min Rain = 0
KTUR 150215Z 18007KT 19/10 A2987 RMK A01 T01890097  RH  056%=      5-min Rain = 0
KTUR 150220Z 18007KT 19/10 A2987 RMK A01 T01880098  RH  057%=      5-min Rain = 0
KTUR 150225Z 18007KT 19/10 A2987 RMK A01 T01860097  RH  057%=      5-min Rain = 0
KTUR 150230Z 18007KT 19/10 A2987 RMK A01 T01880096  RH  056%=      5-min Rain = 0
KTUR 150235Z 18008KT 19/10 A2987 RMK A01 T01900096  RH  055%=      5-min Rain = 0
KTUR 150240Z 18008KT 19/10 A2987 RMK A01 T01920096  RH  054%=      5-min Rain = 0
KTUR 150245Z 18007KT 19/10 A2987 RMK A01 T01900096  RH  055%=      5-min Rain = 0
KTUR 150250Z 19007KT 19/10 A2987 RMK A01 T01880096  RH  056%=      5-min Rain = 0
KTUR 150255Z 19007KT 18/10 A2987 RMK A01 T01840095  RH  057%=      5-min Rain = 0
KTUR 150300Z 19007KT 19/10 A2987 RMK A01 T01870095  RH  056%=      5-min Rain = 0
KTUR 150305Z 19008KT 19/10 A2988 RMK A01 T01890096  RH  056%=      5-min Rain = 0
KTUR 150310Z 19008KT 19/10 A2988 RMK A01 T01870096  RH  056%=      5-min Rain = 0
KTUR 150315Z 20008KT 19/10 A2988 RMK A01 T01860097  RH  057%=      5-min Rain = 0
KTUR 150320Z 19007KT 19/10 A2988 RMK A01 T01850099  RH  058%=      5-min Rain = 0
KTUR 150325Z 19007KT 19/10 A2988 RMK A01 T01850099  RH  058%=      5-min Rain = 0
KTUR 150330Z 19007KT 19/10 A2988 RMK A01 T01860100  RH  058%=      5-min Rain = 0
KTUR 150335Z 19007KT 19/10 A2988 RMK A01 T01870103  RH  059%=      5-min Rain = 0
KTUR 150340Z 19007KT 19/11 A2988 RMK A01 T01870105  RH  060%=      5-min Rain = 0
KTUR 150345Z 19007KT 19/11 A2988 RMK A01 T01890106  RH  060%=      5-min Rain = 0
KTUR 150350Z 19007KT 19/11 A2988 RMK A01 T01850105  RH  061%=      5-min Rain = 0
KTUR 150355Z 19007KT 18/11 A2989 RMK A01 T01820106  RH  062%=      5-min Rain = 0
KTUR 150400Z 19007KT 18/11 A2988 RMK A01 T01820109  RH  063%=      5-min Rain = 0
KTUR 150405Z 18007KT 18/11 A2989 RMK A01 T01840111  RH  064%=      5-min Rain = 0
KTUR 150410Z 18006KT 18/11 A2989 RMK A01 T01840111  RH  064%=      5-min Rain = 0
KTUR 150415Z 18006KT 18/11 A2989 RMK A01 T01820112  RH  065%=      5-min Rain = 0
KTUR 150420Z 18005KT 18/11 A2989 RMK A01 T01790109  RH  065%=      5-min Rain = 0
KTUR 150425Z 19005KT 18/11 A2989 RMK A01 T01770110  RH  066%=      5-min Rain = 0
KTUR 150430Z 19005KT 18/11 A2989 RMK A01 T01770111  RH  066%=      5-min Rain = 0
KTUR 150435Z 19005KT 18/11 A2989 RMK A01 T01780113  RH  067%=      5-min Rain = 0
KTUR 150440Z 20006KT 18/12 A2989 RMK A01 T01770115  RH  068%=      5-min Rain = 0
KTUR 150445Z 21006KT 18/12 A2989 RMK A01 T01760117  RH  070%=      5-min Rain = 0
KTUR 150450Z 20007KT 18/12 A2988 RMK A01 T01780121  RH  071%=      5-min Rain = 0
KTUR 150455Z 20008KT 18/12 A2988 RMK A01 T01790123  RH  071%=      5-min Rain = 0

Page generated in 0.0091 seconds.